Time;durP1;ratioP1;P1;durP2;ratioP2;P2;SDS_P1;SDS_P2;PMS_P1;PMS_P2;Temp;Humidity;BMP_temperature;BMP_pressure;BME280_temperature;BME280_humidity;BME280_pressure;Samples;Min_cycle;Max_cycle;Signal;HPM_P1;HPM_P2
2022/07/13 00:00:54;;;;;;;5.65;2.00;;;15.40;91.10;;;;;;5020947;28;20018;-71
2022/07/13 00:03:21;;;;;;;7.82;2.58;;;15.30;90.90;;;;;;5030313;28;20468;-71
2022/07/13 00:05:47;;;;;;;7.70;2.65;;;15.30;90.80;;;;;;5027345;28;20025;-71
2022/07/13 00:08:14;;;;;;;8.95;1.90;;;15.30;90.80;;;;;;5026168;28;20104;-71
2022/07/13 00:10:40;;;;;;;6.72;3.53;;;15.30;90.80;;;;;;5030800;28;20500;-71
2022/07/13 00:13:06;;;;;;;7.57;3.40;;;15.30;90.80;;;;;;5012258;28;20105;-71
2022/07/13 00:15:33;;;;;;;9.15;2.20;;;15.30;90.70;;;;;;5011612;28;20029;-71
2022/07/13 00:18:00;;;;;;;12.45;2.35;;;15.30;90.70;;;;;;5031467;28;20029;-72
2022/07/13 00:20:27;;;;;;;6.70;3.10;;;15.30;90.60;;;;;;5029382;28;20058;-71
2022/07/13 00:22:55;;;;;;;6.68;2.65;;;15.20;90.60;;;;;;5031528;28;20025;-71
2022/07/13 00:25:21;;;;;;;7.43;2.30;;;15.20;90.60;;;;;;5030624;28;20026;-72
2022/07/13 00:27:48;;;;;;;9.07;2.20;;;15.20;90.50;;;;;;5031043;28;20052;-71
2022/07/13 00:30:14;;;;;;;7.43;2.15;;;15.20;90.50;;;;;;5031162;28;20034;-71
2022/07/13 00:32:41;;;;;;;6.32;2.03;;;15.20;90.50;;;;;;5030463;28;20060;-71
2022/07/13 00:35:07;;;;;;;6.85;1.98;;;15.20;90.40;;;;;;5030524;28;20022;-71
2022/07/13 00:37:34;;;;;;;8.73;1.98;;;15.30;90.50;;;;;;5030228;28;20029;-71
2022/07/13 00:40:00;;;;;;;5.10;1.88;;;15.20;90.40;;;;;;5030914;28;20588;-71
2022/07/13 00:42:27;;;;;;;7.20;2.42;;;15.20;90.40;;;;;;5030330;28;20025;-71
2022/07/13 00:44:53;;;;;;;5.13;2.03;;;15.20;90.40;;;;;;5030243;28;20115;-71
2022/07/13 00:47:20;;;;;;;6.10;3.65;;;15.20;90.70;;;;;;5031076;28;20032;-72
2022/07/13 00:49:47;;;;;;;5.95;2.30;;;15.20;90.40;;;;;;5029988;28;20353;-71
2022/07/13 00:52:14;;;;;;;15.32;2.95;;;15.20;90.40;;;;;;5031209;28;20017;-71
2022/07/13 00:54:43;;;;;;;10.82;2.17;;;15.20;90.30;;;;;;5029499;28;20502;-71
2022/07/13 00:57:14;;;;;;;8.18;2.22;;;15.20;90.30;;;;;;5030773;28;20042;-71
2022/07/13 00:59:41;;;;;;;8.15;2.15;;;15.20;90.40;;;;;;5030154;28;20021;-71
2022/07/13 01:02:07;;;;;;;5.00;1.55;;;15.20;90.30;;;;;;5030552;28;20104;-71
2022/07/13 01:04:34;;;;;;;5.18;1.50;;;15.20;90.30;;;;;;5030225;28;20112;-72
2022/07/13 01:07:01;;;;;;;7.85;2.08;;;15.20;90.30;;;;;;5029598;28;20041;-72
2022/07/13 01:09:28;;;;;;;12.45;2.70;;;15.20;90.20;;;;;;5030423;28;20535;-71
2022/07/13 01:11:55;;;;;;;8.48;1.70;;;15.20;90.30;;;;;;5028582;28;20030;-72
2022/07/13 01:14:22;;;;;;;7.82;3.05;;;15.10;90.20;;;;;;5014770;28;20025;-72
2022/07/13 01:16:49;;;;;;;6.90;2.50;;;15.20;90.20;;;;;;5029500;28;20030;-72
2022/07/13 01:19:16;;;;;;;7.13;2.25;;;15.10;90.10;;;;;;5030479;28;20427;-71
2022/07/13 01:21:46;;;;;;;9.07;2.28;;;15.10;90.00;;;;;;5029468;28;20022;-71
2022/07/13 01:24:13;;;;;;;10.50;2.60;;;15.10;90.00;;;;;;5029759;28;20071;-71
2022/07/13 01:26:40;;;;;;;8.77;2.30;;;15.10;89.90;;;;;;5030266;28;20125;-72
2022/07/13 01:29:07;;;;;;;10.52;2.00;;;15.10;89.80;;;;;;5029195;28;20036;-71
2022/07/13 01:31:39;;;;;;;3.42;1.77;;;15.10;90.00;;;;;;5030184;28;20455;-72
2022/07/13 01:34:06;;;;;;;4.82;1.70;;;15.10;89.90;;;;;;5029274;28;20034;-72
2022/07/13 01:36:34;;;;;;;8.05;1.98;;;15.10;89.80;;;;;;5030135;28;20060;-72
2022/07/13 01:39:01;;;;;;;6.78;2.35;;;15.10;89.80;;;;;;5029639;28;20025;-72
2022/07/13 01:41:29;;;;;;;13.10;1.90;;;15.10;89.70;;;;;;5029406;28;20075;-72
2022/07/13 01:43:59;;;;;;;10.10;1.98;;;15.10;89.70;;;;;;5029987;28;20021;-73
2022/07/13 01:46:26;;;;;;;5.78;1.85;;;15.10;89.50;;;;;;5029249;28;20022;-72
2022/07/13 01:48:55;;;;;;;5.13;1.92;;;15.10;89.40;;;;;;5030070;28;20021;-72
2022/07/13 01:51:21;;;;;;;7.47;2.67;;;15.00;89.20;;;;;;5029135;28;20018;-72
2022/07/13 01:53:48;;;;;;;7.97;2.33;;;15.00;89.00;;;;;;5030081;28;20034;-72
2022/07/13 01:56:14;;;;;;;7.68;2.17;;;15.00;88.90;;;;;;5029556;28;20171;-72
2022/07/13 01:58:41;;;;;;;4.05;2.05;;;15.00;88.80;;;;;;5029159;28;20026;-72
2022/07/13 02:01:07;;;;;;;5.80;1.83;;;15.00;88.60;;;;;;5029770;28;20388;-72
2022/07/13 02:03:34;;;;;;;4.25;1.90;;;15.00;88.60;;;;;;5028864;28;20388;-72
2022/07/13 02:06:00;;;;;;;10.50;1.77;;;15.00;88.60;;;;;;5030056;28;20026;-72
2022/07/13 02:08:27;;;;;;;4.90;2.90;;;15.00;88.70;;;;;;5028660;28;20030;-72
2022/07/13 02:10:53;;;;;;;10.43;2.30;;;15.00;88.70;;;;;;5030242;28;20109;-72
2022/07/13 02:13:21;;;;;;;4.07;1.50;;;15.00;88.70;;;;;;5029025;28;20029;-72
2022/07/13 02:15:47;;;;;;;6.53;1.60;;;15.00;88.60;;;;;;5029562;28;20048;-71
2022/07/13 02:18:14;;;;;;;4.63;1.17;;;15.00;88.50;;;;;;5029329;28;20040;-72
2022/07/13 02:20:41;;;;;;;5.70;1.55;;;15.00;88.50;;;;;;5029100;28;20534;-72
2022/07/13 02:23:07;;;;;;;11.40;1.60;;;15.00;88.40;;;;;;5029832;28;20104;-73
2022/07/13 02:25:34;;;;;;;13.50;2.35;;;15.00;88.50;;;;;;5010804;28;20033;-73
2022/07/13 02:28:00;;;;;;;5.45;2.17;;;15.00;88.70;;;;;;5029452;28;20026;-72
2022/07/13 02:30:27;;;;;;;11.57;1.45;;;15.00;88.90;;;;;;5028603;28;20017;-71
2022/07/13 02:32:54;;;;;;;9.10;1.80;;;15.00;88.90;;;;;;5029629;28;20026;-71
2022/07/13 02:35:20;;;;;;;7.22;1.85;;;15.00;88.90;;;;;;5029265;28;20061;-71
2022/07/13 02:37:47;;;;;;;3.28;1.05;;;15.00;89.40;;;;;;5029089;28;20360;-72
2022/07/13 02:40:13;;;;;;;3.33;1.75;;;15.00;88.70;;;;;;5029179;28;20540;-72
2022/07/13 02:42:40;;;;;;;4.65;1.40;;;15.00;88.60;;;;;;5028710;28;20059;-72
2022/07/13 02:45:07;;;;;;;11.43;2.17;;;14.90;88.30;;;;;;5033572;28;20018;-72
2022/07/13 02:47:34;;;;;;;4.97;2.35;;;14.90;88.20;;;;;;5032484;28;20017;-72
2022/07/13 02:50:01;;;;;;;7.70;2.17;;;14.90;88.10;;;;;;5033328;28;20049;-72
2022/07/13 02:52:27;;;;;;;4.90;2.25;;;14.90;88.20;;;;;;5047485;28;20485;-72
2022/07/13 02:54:54;;;;;;;7.15;2.25;;;14.90;88.10;;;;;;5032902;28;20034;-72
2022/07/13 02:57:20;;;;;;;8.95;1.75;;;14.90;88.30;;;;;;5014403;28;20041;-73
2022/07/13 02:59:47;;;;;;;9.30;2.33;;;14.90;88.50;;;;;;5032104;28;20075;-72
2022/07/13 03:02:14;;;;;;;9.73;2.13;;;14.90;88.60;;;;;;5015289;28;20024;-72
2022/07/13 03:04:40;;;;;;;7.13;2.55;;;14.90;88.60;;;;;;5031921;28;20623;-73
2022/07/13 04:18:37;;;;;;;6.28;2.50;;;14.30;90.40;;;;;;5112549;27;20445;-70
2022/07/13 04:21:04;;;;;;;6.03;2.00;;;14.60;90.60;;;;;;5104931;27;20478;-75
2022/07/13 04:23:31;;;;;;;12.60;2.47;;;14.60;90.40;;;;;;5105432;28;20428;-73
2022/07/13 04:25:58;;;;;;;20.75;9.85;;;14.70;90.30;;;;;;5105107;28;20111;-72
2022/07/13 04:28:25;;;;;;;28.33;17.98;;;14.70;90.30;;;;;;5107073;27;20099;-73
2022/07/13 04:30:52;;;;;;;25.85;15.88;;;14.70;90.30;;;;;;5104422;28;20369;-77
2022/07/13 04:33:18;;;;;;;15.15;8.82;;;14.80;90.30;;;;;;5104790;28;20382;-77
2022/07/13 04:35:45;;;;;;;19.40;6.40;;;14.80;90.30;;;;;;5103151;28;20077;-77
2022/07/13 04:38:11;;;;;;;22.73;5.13;;;14.80;90.20;;;;;;5105482;28;20032;-73
2022/07/13 04:40:38;;;;;;;14.40;3.78;;;14.80;90.20;;;;;;5105616;28;20026;-74
2022/07/13 04:43:05;;;;;;;13.30;3.00;;;14.80;90.10;;;;;;5106926;28;20051;-76
2022/07/13 04:45:32;;;;;;;16.17;2.67;;;14.80;90.20;;;;;;5106749;28;20024;-75
2022/07/13 04:47:59;;;;;;;4.60;1.60;;;14.90;90.20;;;;;;5106543;28;20026;-75
2022/07/13 04:50:26;;;;;;;11.05;2.22;;;14.80;90.20;;;;;;5108277;27;20494;-74
2022/07/13 04:52:52;;;;;;;5.10;1.40;;;14.80;90.20;;;;;;5103182;28;20028;-73
2022/07/13 04:55:19;;;;;;;14.85;1.85;;;14.80;90.20;;;;;;5105637;28;20020;-74
2022/07/13 04:57:45;;;;;;;13.23;1.55;;;14.90;90.20;;;;;;5104477;28;20028;-74
2022/07/13 05:00:12;;;;;;;6.70;2.63;;;14.90;90.30;;;;;;5106608;28;20012;-72
2022/07/13 05:02:38;;;;;;;9.60;1.75;;;14.90;90.30;;;;;;5103432;28;20028;-73
2022/07/13 05:05:06;;;;;;;12.30;2.58;;;14.90;90.30;;;;;;5103645;28;20020;-73
2022/07/13 05:07:33;;;;;;;7.90;2.53;;;14.90;90.30;;;;;;5103600;28;20381;-74
2022/07/13 05:09:59;;;;;;;6.10;1.98;;;14.90;90.20;;;;;;5107464;28;20463;-74
2022/07/13 05:12:26;;;;;;;7.68;1.60;;;14.90;90.20;;;;;;5103312;28;20032;-74
2022/07/13 05:14:52;;;;;;;7.65;1.75;;;14.80;90.30;;;;;;5103742;28;20477;-74
2022/07/13 05:17:19;;;;;;;5.40;1.65;;;14.90;90.30;;;;;;5105822;27;20438;-74
2022/07/13 05:19:45;;;;;;;8.73;1.88;;;14.90;90.30;;;;;;5090709;28;20054;-74
2022/07/13 05:22:12;;;;;;;7.25;1.88;;;14.90;90.40;;;;;;5090425;28;20592;-73
2022/07/13 05:24:43;;;;;;;8.93;2.13;;;14.90;90.40;;;;;;5090651;28;20502;-74
2022/07/13 05:27:11;;;;;;;8.43;2.53;;;14.90;90.50;;;;;;5093616;28;20070;-74
2022/07/13 05:29:38;;;;;;;5.65;2.45;;;14.90;90.50;;;;;;5089597;28;20440;-74
2022/07/13 05:32:06;;;;;;;10.15;2.17;;;14.90;90.70;;;;;;5090848;28;20024;-74
2022/07/13 05:34:32;;;;;;;14.05;3.83;;;14.90;90.80;;;;;;5086171;28;20463;-73
2022/07/13 05:36:59;;;;;;;10.27;2.05;;;14.90;90.70;;;;;;5091979;28;20055;-73
2022/07/13 05:39:25;;;;;;;9.05;1.80;;;14.90;90.80;;;;;;5091590;28;20390;-73
2022/07/13 05:41:52;;;;;;;12.52;2.25;;;14.90;90.80;;;;;;5088657;28;20020;-73
2022/07/13 05:44:18;;;;;;;10.55;2.10;;;14.90;91.00;;;;;;5093284;28;20020;-74
2022/07/13 05:46:45;;;;;;;11.05;2.33;;;14.90;91.10;;;;;;5092163;28;20036;-74
2022/07/13 05:49:11;;;;;;;7.05;2.65;;;14.90;91.10;;;;;;5091925;28;20052;-74
2022/07/13 05:51:38;;;;;;;7.28;1.65;;;15.00;91.00;;;;;;5089901;28;20101;-74
2022/07/13 05:54:04;;;;;;;5.78;2.00;;;14.90;90.90;;;;;;5096861;28;20035;-73
2022/07/13 05:56:30;;;;;;;7.82;1.92;;;14.90;90.80;;;;;;5092669;28;20540;-73
2022/07/13 05:58:57;;;;;;;6.07;2.17;;;14.90;90.80;;;;;;5090138;28;20023;-74
2022/07/13 06:01:23;;;;;;;6.93;1.48;;;14.90;90.90;;;;;;5089885;28;20066;-73
2022/07/13 06:03:50;;;;;;;8.45;2.05;;;14.90;90.90;;;;;;5089582;28;20027;-74
2022/07/13 06:06:16;;;;;;;5.63;2.55;;;14.90;90.90;;;;;;5092370;28;20028;-74
2022/07/13 06:08:43;;;;;;;7.53;2.10;;;14.90;90.80;;;;;;5089474;28;20036;-73
2022/07/13 06:11:09;;;;;;;4.03;1.83;;;14.90;90.80;;;;;;5092900;28;20547;-74
2022/07/13 06:13:36;;;;;;;6.85;1.90;;;14.90;90.70;;;;;;5093435;28;20031;-73
2022/07/13 06:16:02;;;;;;;3.65;1.35;;;14.90;90.70;;;;;;5091950;28;20008;-73
2022/07/13 06:18:29;;;;;;;8.23;1.30;;;14.90;90.90;;;;;;5089862;28;20044;-73
2022/07/13 06:20:55;;;;;;;5.72;1.55;;;14.90;90.60;;;;;;5094400;28;20012;-73
2022/07/13 06:23:22;;;;;;;17.95;2.35;;;14.90;90.70;;;;;;5089760;28;20028;-74
2022/07/13 06:25:48;;;;;;;7.40;2.00;;;14.90;90.70;;;;;;5088691;28;20028;-74
2022/07/13 06:28:15;;;;;;;7.57;2.20;;;14.90;90.70;;;;;;5122996;27;20061;-74
2022/07/13 06:30:42;;;;;;;9.20;2.25;;;14.90;90.80;;;;;;5091545;28;20024;-74
2022/07/13 06:33:08;;;;;;;6.47;2.05;;;14.90;90.80;;;;;;5089152;28;20051;-74
2022/07/13 06:35:34;;;;;;;13.68;2.55;;;14.90;90.80;;;;;;5091318;28;20022;-74
2022/07/13 06:38:01;;;;;;;11.77;2.70;;;14.90;91.00;;;;;;5088890;28;20416;-74
2022/07/13 06:40:28;;;;;;;6.75;2.80;;;14.90;90.70;;;;;;5088951;28;20478;-74
2022/07/13 06:42:54;;;;;;;13.10;3.47;;;14.90;90.70;;;;;;5090919;28;20510;-73
2022/07/13 06:45:22;;;;;;;10.43;4.43;;;14.90;90.70;;;;;;5090301;28;20021;-74
2022/07/13 06:47:51;;;;;;;8.68;5.55;;;14.90;90.80;;;;;;5088174;28;20130;-74
2022/07/13 06:50:19;;;;;;;9.88;6.03;;;15.00;90.90;;;;;;5091883;28;20378;-74
2022/07/13 06:52:45;;;;;;;11.80;5.97;;;15.00;91.00;;;;;;5090709;28;20036;-74
2022/07/13 06:55:12;;;;;;;9.35;6.45;;;15.00;91.00;;;;;;5088641;28;20027;-73
2022/07/13 06:57:39;;;;;;;11.60;6.80;;;15.00;91.00;;;;;;5095977;28;20026;-73
2022/07/13 07:00:07;;;;;;;11.80;7.07;;;15.00;91.00;;;;;;5090979;28;20016;-74
2022/07/13 07:02:36;;;;;;;12.70;5.53;;;15.00;91.00;;;;;;5090188;28;20024;-73
2022/07/13 07:05:09;;;;;;;9.20;6.60;;;15.10;91.00;;;;;;5088540;28;20016;-74
2022/07/13 07:07:36;;;;;;;17.23;6.40;;;15.10;91.00;;;;;;5088292;28;20024;-73
2022/07/13 07:10:02;;;;;;;13.50;6.00;;;15.00;90.90;;;;;;5090377;28;20024;-74
2022/07/13 07:12:29;;;;;;;12.18;6.35;;;15.10;90.90;;;;;;5089806;28;20473;-73
2022/07/13 07:14:55;;;;;;;14.90;7.03;;;15.10;90.90;;;;;;5091494;28;20020;-73
2022/07/13 07:17:22;;;;;;;17.48;7.00;;;15.10;91.00;;;;;;5089477;28;20040;-74
2022/07/13 07:19:48;;;;;;;13.40;6.28;;;15.10;91.10;;;;;;5090112;28;20347;-73
2022/07/13 07:22:15;;;;;;;13.38;5.63;;;15.10;91.10;;;;;;5089136;28;20462;-73
2022/07/13 07:24:42;;;;;;;12.25;5.22;;;15.10;91.10;;;;;;5091006;28;20138;-73
2022/07/13 07:27:10;;;;;;;12.75;6.97;;;15.10;91.10;;;;;;5088219;28;20115;-74
2022/07/13 07:29:39;;;;;;;13.00;6.72;;;15.10;91.10;;;;;;5088457;28;20012;-73
2022/07/13 07:32:06;;;;;;;16.88;8.18;;;15.20;91.10;;;;;;5090134;28;20027;-74
2022/07/13 07:34:33;;;;;;;11.75;8.70;;;15.10;91.00;;;;;;5087230;28;20027;-73
2022/07/13 07:36:59;;;;;;;25.85;8.18;;;15.10;90.90;;;;;;5087621;28;20027;-74
2022/07/13 07:39:26;;;;;;;15.73;7.78;;;15.10;91.00;;;;;;5087426;28;20092;-73
2022/07/13 07:41:53;;;;;;;20.05;8.38;;;15.20;91.00;;;;;;5089534;28;20044;-73
2022/07/13 07:44:20;;;;;;;9.23;6.97;;;15.20;91.10;;;;;;5090824;28;20028;-73
2022/07/13 07:46:47;;;;;;;10.27;5.90;;;15.20;91.20;;;;;;5090817;28;20072;-73
2022/07/13 07:49:13;;;;;;;10.63;5.57;;;15.20;91.20;;;;;;5093004;28;20031;-73
2022/07/13 07:51:40;;;;;;;11.65;5.15;;;15.30;91.20;;;;;;5090522;28;20057;-73
2022/07/13 07:54:06;;;;;;;7.93;5.22;;;15.20;91.20;;;;;;5091436;28;20073;-73
2022/07/13 07:56:33;;;;;;;9.80;5.03;;;15.30;91.20;;;;;;5089538;28;20050;-73
2022/07/13 07:59:00;;;;;;;11.75;7.55;;;15.30;91.30;;;;;;5091402;28;20028;-73
2022/07/13 08:01:28;;;;;;;11.68;5.72;;;15.30;91.20;;;;;;5091610;28;20016;-74
2022/07/13 08:03:56;;;;;;;7.18;4.93;;;15.30;91.40;;;;;;5086325;28;20587;-73
2022/07/13 08:06:22;;;;;;;18.65;4.78;;;15.30;91.10;;;;;;5091769;28;20804;-73
2022/07/13 08:08:49;;;;;;;12.50;5.10;;;15.30;91.10;;;;;;5087116;28;20028;-73
2022/07/13 08:11:17;;;;;;;18.85;6.63;;;15.30;91.10;;;;;;5088767;28;20028;-73
2022/07/13 08:13:47;;;;;;;13.07;5.63;;;15.40;91.10;;;;;;5089814;28;20103;-73
2022/07/13 08:16:15;;;;;;;15.38;5.75;;;15.40;91.10;;;;;;5088839;28;20020;-74
2022/07/13 08:18:42;;;;;;;17.88;6.03;;;15.40;91.20;;;;;;5089241;28;20048;-73
2022/07/13 08:21:09;;;;;;;14.82;5.82;;;15.40;91.20;;;;;;5094339;28;20024;-74
2022/07/13 08:26:23;;;;;;;11.63;4.70;;;15.50;91.10;;;;;;5088808;28;20089;-74
2022/07/13 08:28:51;;;;;;;25.42;5.63;;;15.50;91.00;;;;;;5104741;28;20390;-73
2022/07/13 08:31:20;;;;;;;11.52;4.90;;;15.50;91.00;;;;;;5090769;28;20580;-73
2022/07/13 08:39:17;;;;;;;9.15;3.53;;;15.50;90.70;;;;;;5088191;28;20120;-73
2022/07/13 08:41:44;;;;;;;13.82;4.85;;;15.60;90.60;;;;;;5088206;28;20032;-73
2022/07/13 08:44:11;;;;;;;12.45;3.47;;;15.60;90.50;;;;;;5086962;28;20111;-73
2022/07/13 08:46:38;;;;;;;11.48;4.55;;;15.60;90.50;;;;;;5087768;28;20085;-73
2022/07/13 08:49:06;;;;;;;8.35;3.28;;;15.60;90.50;;;;;;5089647;28;20421;-73
2022/07/13 08:51:34;;;;;;;9.48;3.60;;;15.60;90.40;;;;;;5089589;28;20024;-73
2022/07/13 08:54:03;;;;;;;11.68;3.20;;;15.60;90.40;;;;;;5091747;28;20487;-73
2022/07/13 08:56:30;;;;;;;10.23;4.13;;;15.60;90.50;;;;;;5091617;28;20539;-73
2022/07/13 08:58:57;;;;;;;10.07;3.25;;;15.70;90.50;;;;;;5092516;28;20032;-73
2022/07/13 09:01:23;;;;;;;9.48;3.13;;;15.70;90.50;;;;;;5091618;28;20115;-73
2022/07/13 09:03:51;;;;;;;10.48;2.90;;;15.70;90.50;;;;;;5094802;28;20073;-73
2022/07/13 09:06:39;;;;;;;8.15;3.78;;;15.70;90.50;;;;;;5093407;28;20047;-73
2022/07/13 09:09:06;;;;;;;12.02;2.88;;;15.70;90.40;;;;;;5090910;28;20028;-73
2022/07/13 09:11:34;;;;;;;7.55;2.60;;;15.70;90.40;;;;;;5086441;28;20032;-73
2022/07/13 09:14:00;;;;;;;9.82;2.20;;;15.70;90.40;;;;;;5093799;28;20073;-73
2022/07/13 09:16:28;;;;;;;5.05;2.45;;;15.70;90.30;;;;;;5092120;28;20050;-73
2022/07/13 09:18:59;;;;;;;4.53;2.20;;;15.70;90.30;;;;;;5088301;28;20069;-73
2022/07/13 09:21:27;;;;;;;13.35;3.85;;;15.70;90.30;;;;;;5096638;28;20028;-73
2022/07/13 09:24:03;;;;;;;6.00;3.58;;;15.70;90.30;;;;;;5092100;28;20478;-73
2022/07/13 09:26:40;;;;;;;13.07;5.70;;;15.70;90.40;;;;;;5090439;28;20476;-73
2022/07/13 09:29:07;;;;;;;9.75;4.97;;;15.70;90.50;;;;;;5094360;28;20024;-73
2022/07/13 09:31:56;;;;;;;10.23;5.32;;;15.70;90.50;;;;;;5090754;28;20020;-73
2022/07/13 09:34:46;;;;;;;14.45;7.88;;;15.80;90.50;;;;;;5092109;28;20039;-73
2022/07/13 09:37:14;;;;;;;25.55;5.57;;;15.80;90.40;;;;;;5090459;28;20020;-73
2022/07/13 09:40:07;;;;;;;13.93;4.45;;;15.80;90.40;;;;;;5091703;28;20017;-73
2022/07/13 09:42:42;;;;;;;4.82;3.35;;;15.80;90.40;;;;;;5093684;28;20019;-72
2022/07/13 09:48:00;;;;;;;6.57;3.17;;;15.80;90.40;;;;;;5095054;28;20533;-73
2022/07/13 09:50:39;;;;;;;6.60;2.85;;;15.90;90.40;;;;;;5094402;28;20024;-73
2022/07/13 09:53:29;;;;;;;5.82;2.78;;;15.90;90.40;;;;;;5093066;28;20102;-73
2022/07/13 09:56:01;;;;;;;4.43;1.73;;;15.90;90.40;;;;;;5098111;28;20155;-73
2022/07/13 09:58:33;;;;;;;5.15;2.40;;;15.90;90.40;;;;;;5093099;28;20091;-74
2022/07/13 10:01:02;;;;;;;17.67;3.42;;;15.90;90.40;;;;;;5092006;28;20056;-73
2022/07/13 10:03:29;;;;;;;10.38;2.75;;;15.90;90.70;;;;;;5095140;28;20033;-73
2022/07/13 12:24:57;;;;;;;9.90;1.65;;;16.20;87.50;;;;;;5069468;27;21530;-73
2022/07/13 12:27:29;;;;;;;2.78;1.80;;;16.50;87.30;;;;;;5065345;28;20024;-72
2022/07/13 12:30:10;;;;;;;8.50;1.33;;;16.50;87.30;;;;;;5062940;28;20027;-71
2022/07/13 12:33:06;;;;;;;8.55;2.83;;;16.60;87.00;;;;;;5066574;28;20047;-71
2022/07/13 12:35:35;;;;;;;4.72;1.40;;;16.70;86.60;;;;;;5061367;28;20114;-71
2022/07/13 12:38:08;;;;;;;6.43;1.30;;;16.70;86.30;;;;;;5064721;28;20121;-72
2022/07/13 12:40:49;;;;;;;6.18;1.33;;;16.70;85.90;;;;;;5062809;28;20036;-72
2022/07/13 12:43:36;;;;;;;3.50;1.40;;;16.70;85.80;;;;;;5063825;28;20037;-72
2022/07/13 12:46:03;;;;;;;6.05;1.65;;;16.80;85.60;;;;;;5063933;28;20458;-71
2022/07/13 12:48:33;;;;;;;5.13;1.63;;;16.70;85.10;;;;;;5064348;28;20025;-72
2022/07/13 12:51:07;;;;;;;4.50;1.45;;;16.70;84.60;;;;;;5064762;28;20039;-73
2022/07/13 12:53:56;;;;;;;6.40;1.38;;;16.70;84.20;;;;;;5064417;28;20506;-72
2022/07/13 12:56:25;;;;;;;3.53;1.35;;;16.80;84.20;;;;;;5064299;28;20616;-72
2022/07/13 12:58:54;;;;;;;8.70;1.65;;;16.70;83.30;;;;;;5065219;28;20517;-72
2022/07/13 13:01:37;;;;;;;5.07;1.00;;;16.70;83.00;;;;;;5063750;28;20145;-72
2022/07/13 13:04:11;;;;;;;4.20;1.55;;;16.70;82.80;;;;;;5063132;28;20051;-73
2022/07/13 13:06:42;;;;;;;7.93;1.42;;;16.70;82.30;;;;;;5063621;28;20031;-72
2022/07/13 13:09:11;;;;;;;7.30;1.80;;;16.70;81.90;;;;;;5063386;28;20028;-73
2022/07/13 13:11:39;;;;;;;8.50;2.08;;;16.70;81.70;;;;;;5065317;28;20411;-73
2022/07/13 13:14:06;;;;;;;6.30;1.98;;;16.70;81.60;;;;;;5062957;28;20068;-73
2022/07/13 13:16:33;;;;;;;7.18;1.55;;;16.70;81.40;;;;;;5065410;28;20031;-72
2022/07/13 13:19:00;;;;;;;7.60;1.85;;;16.70;81.00;;;;;;5063578;28;20025;-73
2022/07/13 13:21:26;;;;;;;5.13;1.70;;;16.70;80.90;;;;;;5062952;28;20024;-73
2022/07/13 13:23:54;;;;;;;6.97;2.00;;;16.70;80.90;;;;;;5060267;28;20041;-73
2022/07/13 13:26:21;;;;;;;5.50;1.98;;;16.60;80.60;;;;;;5050392;28;20033;-73
2022/07/13 13:31:32;;;;;;;4.15;1.63;;;16.60;80.50;;;;;;5046299;28;20035;-72
2022/07/13 13:33:59;;;;;;;5.00;1.42;;;16.60;80.80;;;;;;5051484;28;20484;-73
2022/07/13 13:36:26;;;;;;;4.22;1.20;;;16.60;80.80;;;;;;5049960;28;20049;-73
2022/07/13 13:38:52;;;;;;;4.43;1.25;;;16.60;80.60;;;;;;5045623;28;20020;-73
2022/07/13 13:41:19;;;;;;;5.25;1.63;;;16.50;80.60;;;;;;5051918;28;20091;-73
2022/07/13 13:43:45;;;;;;;7.13;1.83;;;16.50;80.70;;;;;;5050064;28;20376;-73
2022/07/13 13:46:14;;;;;;;10.88;2.03;;;16.50;80.80;;;;;;5050617;28;20036;-73
2022/07/13 13:48:40;;;;;;;12.52;1.95;;;16.50;81.00;;;;;;5049788;28;20422;-73
2022/07/13 13:51:06;;;;;;;15.50;2.25;;;16.50;81.20;;;;;;5050868;28;20108;-73
2022/07/13 13:53:33;;;;;;;6.53;1.80;;;16.50;81.40;;;;;;5050469;28;20033;-73
2022/07/13 13:56:00;;;;;;;2.97;1.17;;;16.50;81.60;;;;;;5050488;28;20084;-73
2022/07/13 13:58:27;;;;;;;8.32;1.63;;;16.50;81.70;;;;;;5049882;28;20032;-73
2022/07/13 14:00:54;;;;;;;5.78;1.90;;;16.50;81.80;;;;;;5050140;28;20037;-73
2022/07/13 14:03:20;;;;;;;2.55;1.33;;;16.50;82.00;;;;;;5050308;28;20074;-73
2022/07/13 14:05:47;;;;;;;6.00;1.55;;;16.50;82.60;;;;;;5049823;28;20013;-73
2022/07/13 14:08:13;;;;;;;2.70;1.27;;;16.40;83.20;;;;;;5050207;28;20036;-73
2022/07/13 14:10:40;;;;;;;3.33;1.30;;;16.40;83.80;;;;;;5049420;28;20020;-76
2022/07/13 14:13:06;;;;;;;10.95;2.00;;;16.40;84.60;;;;;;5047103;28;20037;-71
2022/07/13 14:15:34;;;;;;;17.75;3.28;;;16.40;85.20;;;;;;5048607;28;20112;-75
2022/07/13 14:18:01;;;;;;;8.50;2.45;;;16.40;86.10;;;;;;5049711;28;20066;-73
2022/07/13 14:20:27;;;;;;;10.25;2.60;;;16.30;86.90;;;;;;5048561;28;20056;-78
2022/07/13 14:22:54;;;;;;;6.10;1.58;;;16.40;87.50;;;;;;5047536;28;20033;-74
2022/07/13 14:25:21;;;;;;;9.60;2.28;;;16.30;89.00;;;;;;5050221;28;20356;-72
2022/07/13 14:27:48;;;;;;;11.18;4.50;;;16.40;89.30;;;;;;5047204;28;20043;-72
2022/07/13 14:30:15;;;;;;;26.77;15.60;;;16.30;89.50;;;;;;5049573;28;20032;-71
2022/07/13 14:32:41;;;;;;;27.45;19.23;;;16.30;89.80;;;;;;5049091;28;20041;-72
2022/07/13 14:35:09;;;;;;;18.92;12.07;;;16.30;90.00;;;;;;5049829;28;20517;-74
2022/07/13 14:37:37;;;;;;;14.93;8.65;;;16.30;90.00;;;;;;5048281;28;20426;-74
2022/07/13 14:40:06;;;;;;;9.93;5.40;;;16.30;90.00;;;;;;5044040;28;20156;-75
2022/07/13 14:42:33;;;;;;;10.20;4.10;;;16.30;90.10;;;;;;5043303;28;20035;-77
2022/07/13 14:44:59;;;;;;;6.60;3.50;;;16.30;90.10;;;;;;5045130;28;20025;-74
2022/07/13 14:47:26;;;;;;;11.23;3.30;;;16.30;90.20;;;;;;5048447;28;20391;-73
2022/07/13 14:49:52;;;;;;;13.48;3.47;;;16.30;90.20;;;;;;5046190;28;20040;-75
2022/07/13 14:52:19;;;;;;;14.60;3.63;;;16.20;90.30;;;;;;5048488;28;20032;-75
2022/07/13 14:54:45;;;;;;;12.48;3.45;;;16.20;90.50;;;;;;5050144;28;20021;-74
2022/07/13 14:57:12;;;;;;;7.97;2.70;;;16.20;90.50;;;;;;5048894;28;20052;-77
2022/07/13 14:59:38;;;;;;;7.65;2.33;;;16.20;90.60;;;;;;5048945;28;20024;-73
2022/07/13 15:02:05;;;;;;;3.58;2.03;;;16.20;90.60;;;;;;5047555;28;20119;-73
2022/07/13 15:04:38;;;;;;;6.10;2.53;;;16.20;90.70;;;;;;5047555;28;20029;-75
2022/07/13 15:07:04;;;;;;;7.38;3.05;;;16.20;90.80;;;;;;5048203;28;20106;-76
2022/07/13 15:09:31;;;;;;;9.82;2.45;;;16.10;91.00;;;;;;5046754;28;20032;-72
2022/07/13 15:11:57;;;;;;;9.40;3.08;;;16.10;91.10;;;;;;5048636;28;20544;-76
2022/07/13 15:14:24;;;;;;;25.95;6.22;;;16.20;91.30;;;;;;5047780;28;20028;-72
2022/07/13 15:16:50;;;;;;;19.77;9.32;;;16.10;91.40;;;;;;5049844;28;20021;-74
2022/07/13 15:19:20;;;;;;;14.98;7.28;;;16.10;91.50;;;;;;5046409;28;20021;-73
2022/07/13 15:21:47;;;;;;;11.15;4.40;;;16.10;91.60;;;;;;5044188;28;20024;-75
2022/07/13 15:24:14;;;;;;;12.57;4.03;;;16.10;91.60;;;;;;5046809;28;20041;-73
2022/07/13 15:26:41;;;;;;;6.72;2.70;;;16.10;91.70;;;;;;5047471;28;20055;-81
2022/07/13 15:29:08;;;;;;;14.52;3.65;;;16.10;91.70;;;;;;5048523;28;20017;-74
2022/07/13 15:31:35;;;;;;;12.18;3.05;;;16.10;91.70;;;;;;5047849;28;20056;-75
2022/07/13 15:34:01;;;;;;;8.10;2.70;;;16.00;91.80;;;;;;5047483;28;20082;-75
2022/07/13 15:36:28;;;;;;;6.45;2.67;;;16.00;91.80;;;;;;5045073;28;20021;-74
2022/07/13 15:38:54;;;;;;;8.80;2.53;;;16.00;91.80;;;;;;5048749;28;20055;-75
2022/07/13 15:41:23;;;;;;;8.40;2.80;;;16.00;91.90;;;;;;5045828;28;20020;-76
2022/07/13 15:43:52;;;;;;;8.48;2.92;;;16.00;92.00;;;;;;5047494;28;20097;-72
2022/07/13 15:46:20;;;;;;;12.05;3.13;;;16.00;92.20;;;;;;5047447;28;20841;-71
2022/07/13 15:48:47;;;;;;;12.02;2.80;;;16.00;92.30;;;;;;5047171;28;20049;-71
2022/07/13 15:51:13;;;;;;;24.90;7.22;;;16.00;92.40;;;;;;5048518;28;20475;-71
2022/07/13 15:53:40;;;;;;;14.85;8.18;;;16.00;92.50;;;;;;5042162;28;20159;-72
2022/07/13 15:56:08;;;;;;;15.93;7.07;;;16.00;92.60;;;;;;5048595;28;20032;-73
2022/07/13 15:58:35;;;;;;;25.15;7.68;;;16.00;92.60;;;;;;5047692;28;20100;-72
2022/07/13 16:01:03;;;;;;;15.82;6.25;;;16.00;92.60;;;;;;5048036;28;20032;-73
2022/07/13 16:03:29;;;;;;;20.63;5.97;;;16.00;92.60;;;;;;5045976;28;20023;-72
2022/07/13 16:05:56;;;;;;;18.38;6.32;;;16.00;92.60;;;;;;5047702;28;20100;-72
2022/07/13 16:08:23;;;;;;;15.93;5.75;;;15.90;92.60;;;;;;5046732;28;20025;-72
2022/07/13 16:10:49;;;;;;;20.45;6.53;;;16.00;92.60;;;;;;5045027;28;20100;-73
2022/07/13 16:13:17;;;;;;;20.92;5.65;;;15.90;92.60;;;;;;5047336;28;20094;-72
2022/07/13 16:15:44;;;;;;;13.80;4.20;;;15.90;92.50;;;;;;5053517;28;20017;-75
2022/07/13 16:18:11;;;;;;;10.20;4.63;;;15.90;92.50;;;;;;5052353;28;20464;-72
2022/07/13 16:20:38;;;;;;;11.52;4.57;;;15.90;92.50;;;;;;5044291;28;20029;-74
2022/07/13 16:23:04;;;;;;;15.15;4.15;;;15.90;92.60;;;;;;5045673;28;20077;-73
2022/07/13 16:25:31;;;;;;;11.25;4.03;;;15.90;92.60;;;;;;5045762;28;20029;-72
2022/07/13 16:27:57;;;;;;;18.25;4.93;;;15.90;92.60;;;;;;5045681;28;20495;-75
2022/07/13 16:30:24;;;;;;;14.98;4.60;;;15.90;92.60;;;;;;5047663;28;20068;-71